Time;durP1;ratioP1;P1;durP2;ratioP2;P2;SDS_P1;SDS_P2;PMS_P1;PMS_P2;Temp;Humidity;BMP_temperature;BMP_pressure;BME280_temperature;BME280_humidity;BME280_pressure;Samples;Min_cycle;Max_cycle;Signal;HPM_P1;HPM_P2
2021/09/28 00:01:38;;;;;;;1.03;0.90;;;11.80;99.90;;;;;;4971947;28;20883;-89
2021/09/28 00:04:04;;;;;;;0.87;0.87;;;11.90;99.90;;;;;;4947231;28;20222;-88
2021/09/28 00:06:30;;;;;;;1.97;1.83;;;11.90;99.90;;;;;;4979921;28;20243;-89
2021/09/28 00:08:56;;;;;;;1.70;1.13;;;12.00;99.90;;;;;;4964866;28;20767;-89
2021/09/28 00:11:21;;;;;;;2.77;1.30;;;12.00;99.90;;;;;;4961733;28;20230;-89
2021/09/28 00:13:47;;;;;;;1.63;1.07;;;12.00;99.90;;;;;;4963860;28;20223;-89
2021/09/28 00:16:13;;;;;;;1.70;1.17;;;12.00;99.90;;;;;;4947985;28;20212;-89
2021/09/28 00:18:38;;;;;;;1.33;1.13;;;12.00;99.90;;;;;;4946700;28;20192;-89
2021/09/28 00:21:04;;;;;;;1.10;1.00;;;12.00;99.90;;;;;;4979607;28;20216;-89
2021/09/28 00:23:30;;;;;;;1.57;0.93;;;12.00;99.90;;;;;;4961501;28;20218;-89
2021/09/28 00:25:56;;;;;;;0.97;0.80;;;12.00;99.90;;;;;;4963175;28;20453;-88
2021/09/28 00:28:24;;;;;;;1.33;0.80;;;12.00;99.90;;;;;;4994350;28;20263;-90
2021/09/28 00:30:50;;;;;;;1.63;0.80;;;12.00;99.90;;;;;;4961086;28;20713;-89
2021/09/28 00:33:16;;;;;;;1.63;1.20;;;12.10;99.90;;;;;;4961789;28;20608;-89
2021/09/28 00:35:42;;;;;;;1.33;0.80;;;12.10;99.90;;;;;;4942577;28;20231;-88
2021/09/28 00:38:08;;;;;;;0.70;0.70;;;12.00;99.90;;;;;;4959421;28;20220;-89
2021/09/28 00:40:33;;;;;;;1.53;1.20;;;12.00;99.90;;;;;;4978499;28;20231;-89
2021/09/28 00:42:59;;;;;;;1.27;1.03;;;12.00;99.90;;;;;;4976266;28;20600;-89
2021/09/28 00:45:25;;;;;;;1.30;0.70;;;12.00;99.90;;;;;;4946064;28;20892;-88
2021/09/28 00:47:51;;;;;;;1.00;1.00;;;12.00;99.90;;;;;;4962406;28;20673;-88
2021/09/28 00:50:18;;;;;;;1.30;1.20;;;12.00;99.90;;;;;;4978400;28;20234;-88
2021/09/28 00:52:46;;;;;;;1.07;1.07;;;12.00;99.90;;;;;;4963486;28;20289;-88
2021/09/28 00:55:15;;;;;;;1.10;0.90;;;11.90;99.90;;;;;;4978138;28;20274;-89
2021/09/28 00:57:41;;;;;;;1.03;1.00;;;11.90;99.90;;;;;;4962506;28;20199;-88
2021/09/28 01:00:09;;;;;;;1.37;1.27;;;11.90;99.90;;;;;;4974756;28;20223;-88
2021/09/28 01:02:37;;;;;;;1.13;1.03;;;11.80;99.90;;;;;;4961166;28;20223;-88
2021/09/28 01:05:05;;;;;;;4.47;1.43;;;11.80;99.90;;;;;;4976003;28;20227;-88
2021/09/28 01:07:31;;;;;;;2.87;1.10;;;11.80;99.90;;;;;;4977035;28;20227;-87
2021/09/28 01:09:57;;;;;;;1.27;1.03;;;11.70;99.90;;;;;;4977677;28;20186;-87
2021/09/28 01:12:23;;;;;;;1.47;1.37;;;11.60;99.90;;;;;;4962835;28;20583;-88
2021/09/28 01:14:48;;;;;;;1.57;1.47;;;11.60;99.90;;;;;;4945725;28;20216;-89
2021/09/28 01:17:17;;;;;;;10.23;1.63;;;11.60;99.90;;;;;;4963784;28;20354;-87
2021/09/28 01:19:43;;;;;;;1.37;1.10;;;11.60;99.90;;;;;;4976076;28;20314;-88
2021/09/28 01:22:12;;;;;;;1.40;1.30;;;11.50;99.90;;;;;;4976901;28;20284;-87
2021/09/28 01:24:38;;;;;;;3.87;2.30;;;11.50;99.90;;;;;;4974708;28;20559;-87
2021/09/28 01:27:04;;;;;;;1.97;1.43;;;11.40;99.90;;;;;;4974890;28;20212;-87
2021/09/28 01:29:31;;;;;;;3.63;2.27;;;11.40;99.90;;;;;;4975433;28;20231;-89
2021/09/28 01:31:57;;;;;;;3.07;1.57;;;11.40;99.90;;;;;;4990945;28;20294;-89
2021/09/28 01:34:23;;;;;;;3.77;2.20;;;11.40;99.90;;;;;;4994555;28;20200;-89
2021/09/28 01:36:49;;;;;;;1.60;1.47;;;11.40;99.90;;;;;;4975161;28;20227;-89
2021/09/28 01:39:16;;;;;;;3.37;2.00;;;11.40;99.90;;;;;;4975801;28;21129;-88
2021/09/28 01:41:42;;;;;;;2.07;1.87;;;11.40;99.90;;;;;;4975888;28;20708;-89
2021/09/28 01:44:11;;;;;;;2.90;2.53;;;11.40;99.90;;;;;;4959197;28;20227;-88
2021/09/28 01:46:39;;;;;;;4.37;1.93;;;11.40;99.90;;;;;;4976208;28;20290;-87
2021/09/28 01:49:06;;;;;;;2.73;2.20;;;11.40;99.90;;;;;;4976571;28;20191;-89
2021/09/28 01:51:32;;;;;;;1.97;1.70;;;11.40;99.90;;;;;;4975916;28;20288;-88
2021/09/28 01:53:58;;;;;;;3.80;2.20;;;11.50;99.90;;;;;;4971823;28;20291;-89
2021/09/28 01:56:25;;;;;;;2.93;2.43;;;11.60;99.90;;;;;;4974418;28;20227;-88
2021/09/28 01:58:52;;;;;;;3.87;2.40;;;11.70;99.90;;;;;;4972355;28;20222;-88
2021/09/28 02:01:18;;;;;;;2.63;2.30;;;11.70;99.90;;;;;;4994324;28;20192;-88
2021/09/28 02:03:44;;;;;;;3.80;3.07;;;11.80;99.90;;;;;;4963168;28;20247;-89
2021/09/28 02:06:09;;;;;;;3.13;2.80;;;11.70;99.90;;;;;;4974030;28;20639;-89
2021/09/28 02:08:35;;;;;;;5.87;3.10;;;11.80;99.90;;;;;;4969929;28;20220;-90
2021/09/28 02:11:01;;;;;;;5.63;3.20;;;11.80;99.90;;;;;;4974509;28;20231;-90
2021/09/28 02:13:26;;;;;;;4.57;2.73;;;11.80;99.90;;;;;;4968527;28;20292;-90
2021/09/28 02:15:52;;;;;;;8.07;3.03;;;11.80;99.90;;;;;;4978051;28;20242;-89
2021/09/28 02:18:18;;;;;;;4.87;3.03;;;11.80;99.90;;;;;;4946179;28;20251;-90
2021/09/28 02:20:44;;;;;;;4.33;3.40;;;11.90;99.90;;;;;;4945916;28;20250;-89
2021/09/28 02:23:10;;;;;;;5.33;4.57;;;11.90;99.90;;;;;;4978072;28;20214;-88
2021/09/28 02:25:35;;;;;;;3.70;3.40;;;12.00;99.90;;;;;;4960144;28;20219;-89
2021/09/28 02:28:01;;;;;;;3.70;3.40;;;12.10;99.90;;;;;;4960820;28;20187;-91
2021/09/28 02:30:27;;;;;;;3.00;2.57;;;12.20;99.90;;;;;;4960546;28;20303;-90
2021/09/28 02:32:53;;;;;;;5.73;4.10;;;12.30;99.90;;;;;;4993597;28;20227;-91
2021/09/28 02:35:18;;;;;;;5.47;4.23;;;12.40;99.90;;;;;;4976833;28;20219;-90
2021/09/28 02:37:44;;;;;;;3.90;3.53;;;12.50;99.90;;;;;;4977428;28;20774;-90
2021/09/28 02:40:11;;;;;;;7.77;4.77;;;12.60;99.90;;;;;;4943600;28;20613;-90
2021/09/28 02:42:37;;;;;;;9.77;4.87;;;12.70;99.90;;;;;;4963487;28;20191;-88
2021/09/28 02:45:07;;;;;;;4.40;3.50;;;12.80;99.90;;;;;;4978086;28;20220;-88
2021/09/28 02:47:32;;;;;;;13.27;4.63;;;12.90;99.90;;;;;;4976709;28;20219;-88
2021/09/28 02:49:58;;;;;;;7.93;3.90;;;12.90;99.90;;;;;;4978129;28;20207;-89
2021/09/28 02:52:24;;;;;;;11.57;4.63;;;13.00;99.90;;;;;;4976811;28;20196;-89
2021/09/28 02:54:50;;;;;;;13.27;4.57;;;13.10;99.90;;;;;;4960023;28;20196;-89
2021/09/28 02:57:16;;;;;;;7.40;4.30;;;13.10;99.90;;;;;;4976472;28;20301;-89
2021/09/28 02:59:42;;;;;;;5.57;4.80;;;13.10;99.90;;;;;;4976976;28;20211;-89
2021/09/28 03:02:08;;;;;;;9.07;5.13;;;13.20;99.90;;;;;;4959290;28;20222;-89
2021/09/28 03:04:34;;;;;;;6.63;3.90;;;13.20;99.90;;;;;;4991995;28;20219;-90
2021/09/28 03:07:00;;;;;;;9.57;6.83;;;13.20;99.90;;;;;;4976176;28;20218;-87
2021/09/28 03:09:26;;;;;;;4.77;3.43;;;13.30;99.90;;;;;;4976588;28;20220;-89
2021/09/28 03:11:52;;;;;;;3.60;1.67;;;13.30;99.90;;;;;;4994627;28;20716;-89
2021/09/28 03:14:17;;;;;;;7.07;4.93;;;13.30;99.90;;;;;;4958550;28;20677;-90
2021/09/28 03:16:43;;;;;;;4.87;4.37;;;13.40;99.90;;;;;;4960269;28;20677;-90
2021/09/28 03:19:09;;;;;;;6.23;3.60;;;13.40;99.90;;;;;;4973877;28;20187;-89
2021/09/28 03:21:35;;;;;;;4.87;2.57;;;13.50;99.90;;;;;;4978085;28;20653;-88
2021/09/28 03:24:00;;;;;;;3.80;3.47;;;13.40;99.90;;;;;;4966263;28;20745;-88
2021/09/28 03:26:26;;;;;;;9.20;3.33;;;13.40;99.90;;;;;;4947254;28;20246;-88
2021/09/28 03:28:52;;;;;;;3.87;3.20;;;13.40;99.90;;;;;;4978997;28;20240;-87
2021/09/28 03:31:18;;;;;;;4.00;3.17;;;13.40;99.90;;;;;;4960628;28;20200;-87
2021/09/28 03:33:44;;;;;;;3.03;2.73;;;13.40;99.90;;;;;;4965044;28;20203;-89
2021/09/28 03:36:10;;;;;;;4.50;2.23;;;13.40;99.90;;;;;;4996008;28;20739;-87
2021/09/28 03:38:36;;;;;;;4.47;3.20;;;13.30;99.90;;;;;;4996199;28;20254;-88
2021/09/28 03:41:02;;;;;;;4.50;2.40;;;13.30;99.90;;;;;;4980086;28;20239;-87
2021/09/28 03:43:28;;;;;;;4.20;2.57;;;13.30;99.90;;;;;;4947757;28;20242;-88
2021/09/28 03:45:55;;;;;;;4.73;3.13;;;13.20;99.90;;;;;;4997407;28;20192;-88
2021/09/28 03:48:21;;;;;;;4.17;3.77;;;13.20;99.90;;;;;;4982173;28;20223;-88
2021/09/28 03:50:48;;;;;;;4.67;3.13;;;13.10;99.90;;;;;;4998816;28;20306;-88
2021/09/28 03:53:14;;;;;;;4.20;2.83;;;13.10;99.90;;;;;;4972280;28;20696;-88
2021/09/28 03:55:40;;;;;;;3.50;2.67;;;13.10;99.90;;;;;;4961282;28;20235;-87
2021/09/28 03:58:07;;;;;;;6.30;3.80;;;13.00;99.90;;;;;;4993882;28;20661;-87
2021/09/28 04:00:36;;;;;;;8.40;3.20;;;13.00;99.90;;;;;;4965177;28;20207;-88
2021/09/28 04:03:06;;;;;;;6.03;3.30;;;13.00;99.90;;;;;;4979701;28;20223;-89
2021/09/28 04:05:33;;;;;;;9.33;3.80;;;12.90;99.90;;;;;;4980411;28;20211;-89
2021/09/28 04:07:59;;;;;;;6.27;3.50;;;12.80;99.90;;;;;;4970278;28;20277;-88
2021/09/28 04:10:25;;;;;;;9.70;3.93;;;12.70;99.90;;;;;;4955703;28;20187;-88
2021/09/28 04:12:51;;;;;;;7.23;4.47;;;12.70;99.90;;;;;;4981411;28;20195;-88
2021/09/28 04:15:20;;;;;;;4.23;3.40;;;12.50;99.90;;;;;;5012369;28;20611;-89
2021/09/28 04:17:47;;;;;;;5.97;3.87;;;12.30;99.90;;;;;;4977966;28;20299;-88
2021/09/28 04:20:13;;;;;;;4.80;3.50;;;12.30;99.90;;;;;;4965671;28;20215;-89
2021/09/28 04:22:39;;;;;;;5.70;3.10;;;12.20;99.90;;;;;;4976323;28;20470;-88
2021/09/28 04:25:05;;;;;;;5.50;3.83;;;12.10;99.90;;;;;;4947823;28;20192;-88
2021/09/28 04:27:32;;;;;;;3.37;2.67;;;12.10;99.90;;;;;;4962974;28;20705;-88
2021/09/28 04:29:58;;;;;;;6.50;2.97;;;12.00;99.90;;;;;;4973416;28;20232;-88
2021/09/28 04:32:24;;;;;;;4.17;3.30;;;11.90;99.90;;;;;;4958470;28;20228;-87
2021/09/28 04:34:50;;;;;;;5.30;3.17;;;11.90;99.90;;;;;;4960979;28;20208;-88
2021/09/28 04:37:15;;;;;;;9.50;3.60;;;11.80;99.90;;;;;;4941869;28;20223;-87
2021/09/28 04:39:41;;;;;;;7.13;3.77;;;11.80;99.90;;;;;;4975813;28;20250;-88
2021/09/28 04:42:07;;;;;;;5.80;3.53;;;11.90;99.90;;;;;;4944127;28;20228;-90
2021/09/28 04:44:33;;;;;;;4.33;2.87;;;11.80;99.90;;;;;;4959647;28;20273;-88
2021/09/28 04:46:58;;;;;;;4.03;3.43;;;11.80;99.90;;;;;;4959840;28;20713;-88
2021/09/28 04:49:24;;;;;;;6.50;3.10;;;11.80;99.90;;;;;;4975914;28;20658;-88
2021/09/28 04:51:50;;;;;;;4.77;3.57;;;11.70;99.90;;;;;;4960770;28;20634;-89
2021/09/28 04:54:15;;;;;;;4.63;3.30;;;11.60;99.90;;;;;;4941489;28;20793;-88
2021/09/28 04:56:41;;;;;;;5.43;3.73;;;11.50;99.90;;;;;;4976850;28;20232;-88
2021/09/28 04:59:07;;;;;;;9.23;3.37;;;11.40;99.90;;;;;;4943302;28;20713;-89
2021/09/28 05:01:33;;;;;;;8.20;3.63;;;11.40;99.90;;;;;;4958063;28;20252;-86
2021/09/28 05:03:59;;;;;;;5.23;3.30;;;11.50;99.90;;;;;;4936970;28;20240;-90
2021/09/28 05:06:24;;;;;;;3.83;3.33;;;11.50;99.90;;;;;;4953680;28;20219;-90
2021/09/28 05:08:51;;;;;;;3.00;2.37;;;11.50;99.90;;;;;;4942750;28;20254;-88
2021/09/28 05:11:17;;;;;;;4.57;3.47;;;11.40;99.90;;;;;;4959683;28;20228;-87
2021/09/28 05:13:43;;;;;;;4.80;3.17;;;11.40;99.90;;;;;;4975388;28;20700;-87
2021/09/28 05:16:09;;;;;;;5.17;3.67;;;11.40;99.90;;;;;;4971554;28;20678;-89
2021/09/28 05:18:35;;;;;;;4.70;3.43;;;11.40;99.90;;;;;;4959411;28;20251;-87
2021/09/28 05:21:01;;;;;;;4.97;4.00;;;11.40;99.90;;;;;;4959280;28;20285;-90
2021/09/28 05:23:28;;;;;;;7.97;4.13;;;11.40;99.90;;;;;;4974261;28;20232;-89
2021/09/28 05:25:54;;;;;;;7.20;3.53;;;11.40;99.90;;;;;;4970287;28;20303;-88
2021/09/28 05:28:20;;;;;;;6.80;3.50;;;11.40;99.90;;;;;;4978178;28;20385;-89
2021/09/28 05:30:46;;;;;;;7.43;3.53;;;11.50;99.90;;;;;;4961917;28;20202;-92
2021/09/28 05:33:13;;;;;;;4.43;3.53;;;11.60;99.90;;;;;;4946262;28;20234;-83
2021/09/28 05:35:39;;;;;;;7.40;3.87;;;11.60;99.90;;;;;;4991511;28;20286;-86
2021/09/28 05:38:05;;;;;;;7.13;3.63;;;11.70;99.90;;;;;;4989334;28;20760;-87
2021/09/28 05:40:31;;;;;;;7.70;4.27;;;11.80;99.90;;;;;;4975781;28;20229;-83
2021/09/28 05:42:57;;;;;;;5.47;4.00;;;11.80;99.90;;;;;;4994432;28;20191;-85
2021/09/28 05:45:23;;;;;;;12.17;4.47;;;11.80;99.90;;;;;;4959709;28;20216;-83
2021/09/28 05:47:50;;;;;;;5.87;4.67;;;11.80;99.90;;;;;;4977545;28;20247;-89
2021/09/28 05:50:20;;;;;;;5.37;4.67;;;11.80;99.90;;;;;;4978567;28;20230;-91
2021/09/28 05:52:46;;;;;;;6.77;4.33;;;11.90;99.90;;;;;;4974129;28;20229;-91
2021/09/28 05:55:12;;;;;;;8.17;4.60;;;12.00;99.90;;;;;;4977143;28;20199;-91
2021/09/28 05:57:38;;;;;;;5.90;5.10;;;12.00;99.90;;;;;;4975342;28;21017;-88
2021/09/28 06:00:05;;;;;;;6.63;4.40;;;12.20;99.90;;;;;;4960622;28;20212;-90
2021/09/28 06:02:30;;;;;;;8.97;5.03;;;12.30;99.90;;;;;;4993854;28;20219;-91
2021/09/28 06:04:56;;;;;;;11.60;4.43;;;12.40;99.90;;;;;;4967233;28;20215;-89
2021/09/28 06:07:22;;;;;;;9.07;5.17;;;12.50;99.90;;;;;;4946049;28;20271;-90
2021/09/28 06:09:48;;;;;;;7.17;4.77;;;12.50;99.90;;;;;;4958870;28;20260;-90
2021/09/28 06:12:15;;;;;;;9.10;4.47;;;12.60;99.90;;;;;;4991143;28;20228;-88
2021/09/28 06:14:42;;;;;;;4.97;4.00;;;12.60;99.90;;;;;;4955952;28;20243;-92
2021/09/28 06:17:08;;;;;;;6.67;3.57;;;12.70;99.90;;;;;;4961010;28;20311;-92
2021/09/28 06:19:35;;;;;;;7.53;4.50;;;12.60;99.90;;;;;;4975976;28;20215;-91
2021/09/28 06:22:02;;;;;;;7.27;4.83;;;12.60;99.90;;;;;;4978166;28;20200;-91
2021/09/28 06:24:30;;;;;;;7.63;4.80;;;12.70;99.90;;;;;;4978081;28;20228;-91
2021/09/28 06:26:57;;;;;;;6.67;4.53;;;12.80;99.90;;;;;;4979055;28;20234;-92
2021/09/28 06:29:23;;;;;;;11.10;4.50;;;12.90;99.90;;;;;;4977666;28;20262;-92
2021/09/28 06:31:49;;;;;;;9.67;4.07;;;13.20;99.90;;;;;;4939589;28;20255;-94
2021/09/28 06:34:17;;;;;;;12.43;5.03;;;13.60;99.90;;;;;;4962409;28;20203;-92
2021/09/28 06:36:42;;;;;;;14.43;4.77;;;14.00;99.90;;;;;;4979353;28;20203;-92
2021/09/28 06:39:08;;;;;;;5.90;4.30;;;14.80;99.90;;;;;;4963603;28;20727;-93
2021/09/28 06:41:34;;;;;;;7.03;3.00;;;15.50;99.90;;;;;;4962521;28;20290;-92
2021/09/28 06:44:00;;;;;;;9.07;3.60;;;15.70;99.90;;;;;;4995421;28;20254;-92
2021/09/28 06:46:26;;;;;;;7.57;2.67;;;16.20;99.90;;;;;;4962855;28;20223;-92
2021/09/28 06:48:52;;;;;;;3.00;2.73;;;16.50;99.90;;;;;;4961943;28;20274;-92
2021/09/28 06:51:19;;;;;;;4.23;3.10;;;16.60;99.90;;;;;;4980343;28;20301;-91
2021/09/28 06:53:45;;;;;;;7.40;3.13;;;17.10;99.90;;;;;;4980244;28;20212;-92
2021/09/28 06:56:16;;;;;;;3.80;3.10;;;16.80;99.90;;;;;;4988432;28;20305;-92
2021/09/28 06:58:42;;;;;;;10.03;3.57;;;16.60;99.90;;;;;;4985040;28;20665;-92
2021/09/28 07:01:08;;;;;;;7.37;2.63;;;17.20;99.90;;;;;;4944375;28;20184;-91
2021/09/28 07:03:34;;;;;;;7.43;2.77;;;17.00;99.90;;;;;;4963990;28;20207;-93
2021/09/28 07:06:01;;;;;;;7.67;2.57;;;16.80;99.90;;;;;;4955392;28;20314;-92
2021/09/28 07:08:27;;;;;;;7.73;3.10;;;16.90;99.90;;;;;;4977812;28;20484;-93
2021/09/28 07:10:53;;;;;;;5.30;3.30;;;16.90;99.90;;;;;;4978905;28;20310;-87
2021/09/28 07:13:19;;;;;;;3.43;1.97;;;16.40;99.90;;;;;;4964014;28;20275;-92
2021/09/28 07:15:45;;;;;;;7.03;2.50;;;15.80;99.90;;;;;;4970796;28;20334;-91
2021/09/28 07:18:14;;;;;;;7.80;2.73;;;15.50;99.90;;;;;;4963923;28;20765;-90
2021/09/28 07:20:40;;;;;;;6.60;2.77;;;15.60;99.90;;;;;;4965549;28;20579;-92
2021/09/28 07:23:07;;;;;;;4.67;2.93;;;16.50;99.90;;;;;;4966334;28;20290;-91
2021/09/28 07:25:33;;;;;;;4.07;2.30;;;17.40;99.90;;;;;;4968210;28;20211;-89
2021/09/28 07:28:00;;;;;;;7.97;3.00;;;18.30;99.90;;;;;;4982946;28;20727;-90
2021/09/28 07:30:32;;;;;;;3.90;2.53;;;19.10;99.90;;;;;;4979613;28;20219;-89
2021/09/28 07:32:59;;;;;;;8.87;3.23;;;19.30;99.90;;;;;;4979766;28;20237;-88
2021/09/28 07:35:26;;;;;;;2.50;2.20;;;19.60;99.90;;;;;;4996839;28;20231;-91
2021/09/28 07:37:52;;;;;;;3.63;2.67;;;19.60;99.90;;;;;;4980570;28;20237;-91
2021/09/28 07:40:18;;;;;;;5.83;2.60;;;20.20;99.90;;;;;;4980896;28;20258;-91
2021/09/28 07:42:45;;;;;;;9.13;3.50;;;20.20;99.90;;;;;;4981563;28;21223;-91
2021/09/28 07:45:12;;;;;;;5.60;2.43;;;20.20;99.90;;;;;;4966221;28;20222;-91
2021/09/28 07:47:38;;;;;;;4.93;2.37;;;20.30;99.90;;;;;;4972542;28;20212;-89
2021/09/28 07:50:04;;;;;;;4.57;2.93;;;20.80;99.90;;;;;;4998226;28;20247;-93
2021/09/28 07:52:30;;;;;;;8.80;3.27;;;20.50;99.90;;;;;;4979037;28;20223;-88
2021/09/28 07:54:56;;;;;;;3.80;2.17;;;21.20;99.90;;;;;;4964532;28;20942;-91
2021/09/28 07:57:22;;;;;;;5.43;2.50;;;21.30;99.90;;;;;;4962564;28;20231;-89
2021/09/28 07:59:48;;;;;;;5.40;2.37;;;22.60;99.90;;;;;;4962537;28;20767;-90
2021/09/28 08:02:13;;;;;;;5.77;2.27;;;23.30;99.90;;;;;;4962440;28;20688;-89
2021/09/28 08:04:40;;;;;;;7.97;2.90;;;23.90;99.90;;;;;;4979775;28;20214;-87
2021/09/28 08:07:12;;;;;;;6.97;2.50;;;24.30;99.90;;;;;;4961960;28;20200;-87
2021/09/28 08:09:39;;;;;;;7.23;2.33;;;24.00;99.90;;;;;;4961320;28;20336;-87
2021/09/28 08:12:07;;;;;;;10.50;2.80;;;24.40;99.90;;;;;;4961831;28;20223;-89
2021/09/28 08:14:33;;;;;;;4.33;2.27;;;23.50;99.90;;;;;;4962607;28;20222;-85
2021/09/28 08:16:58;;;;;;;7.93;3.13;;;23.60;99.90;;;;;;4979134;28;20231;-85
2021/09/28 08:19:24;;;;;;;3.45;2.17;;;23.00;99.90;;;;;;4961724;28;20334;-87
2021/09/28 08:21:51;;;;;;;3.85;2.35;;;23.00;99.90;;;;;;4947985;28;20261;-87
2021/09/28 08:24:18;;;;;;;4.03;2.05;;;22.30;99.90;;;;;;4978468;28;20231;-85
2021/09/28 08:29:30;;;;;;;5.57;2.07;;;22.00;99.90;;;;;;4995454;28;20228;-88
2021/09/28 08:31:56;;;;;;;4.37;2.00;;;21.90;99.90;;;;;;4963230;28;20223;-85
2021/09/28 08:34:21;;;;;;;7.63;2.57;;;21.70;99.90;;;;;;4945901;28;20560;-85
2021/09/28 08:36:48;;;;;;;6.87;2.40;;;22.20;99.90;;;;;;4978656;28;20288;-85
2021/09/28 08:39:16;;;;;;;10.70;3.90;;;22.90;99.90;;;;;;4995746;28;20242;-87
2021/09/28 08:41:47;;;;;;;5.80;2.43;;;23.40;99.90;;;;;;4977922;28;20247;-87
2021/09/28 08:44:15;;;;;;;4.53;1.95;;;24.00;99.90;;;;;;4977635;28;20395;-90
2021/09/28 08:46:41;;;;;;;10.97;2.70;;;24.10;99.90;;;;;;4994695;28;20236;-88
2021/09/28 08:49:07;;;;;;;6.47;2.38;;;23.70;99.90;;;;;;4977925;28;20330;-88
2021/09/28 08:51:33;;;;;;;2.50;1.80;;;23.60;99.90;;;;;;4980579;28;20967;-89
2021/09/28 08:54:00;;;;;;;5.05;1.80;;;23.50;99.90;;;;;;4979607;28;20258;-88
2021/09/28 08:56:27;;;;;;;4.53;2.47;;;22.70;99.90;;;;;;4971235;28;20262;-90
2021/09/28 08:58:58;;;;;;;8.00;2.80;;;21.90;99.90;;;;;;4968648;28;20287;-88
2021/09/28 09:01:25;;;;;;;5.50;1.30;;;21.30;99.90;;;;;;4976852;28;20254;-88
2021/09/28 09:03:51;;;;;;;5.40;2.13;;;20.70;99.90;;;;;;4960419;28;20244;-88
2021/09/28 09:06:17;;;;;;;2.07;1.30;;;20.10;99.90;;;;;;4977038;28;20307;-90
2021/09/28 09:08:48;;;;;;;2.90;1.30;;;19.90;99.90;;;;;;4995546;28;21054;-87
2021/09/28 09:11:16;;;;;;;6.03;1.70;;;19.30;99.90;;;;;;4961756;28;20242;-88
2021/09/28 09:13:43;;;;;;;3.00;1.50;;;19.50;99.90;;;;;;4960545;28;20211;-87
2021/09/28 09:16:13;;;;;;;2.83;1.17;;;19.40;99.90;;;;;;4994739;28;20212;-86
2021/09/28 09:18:41;;;;;;;2.37;1.40;;;19.00;99.90;;;;;;4997138;28;20632;-86
2021/09/28 09:21:08;;;;;;;7.20;1.93;;;18.70;99.90;;;;;;4978263;28;20245;-87
2021/09/28 09:23:39;;;;;;;1.73;1.27;;;18.90;99.90;;;;;;4997894;28;20227;-84
2021/09/28 09:26:19;;;;;;;7.57;1.70;;;18.50;99.90;;;;;;4976717;28;20247;-87
2021/09/28 09:28:51;;;;;;;5.30;1.70;;;18.60;99.90;;;;;;4979273;28;20317;-87
2021/09/28 09:31:34;;;;;;;3.87;1.00;;;18.90;99.90;;;;;;4990382;28;20203;-86
2021/09/28 09:34:17;;;;;;;7.20;1.37;;;19.00;99.90;;;;;;4970164;28;20211;-85
2021/09/28 09:36:52;;;;;;;2.67;1.57;;;19.30;99.90;;;;;;4978632;28;20234;-88
2021/09/28 09:39:18;;;;;;;1.97;1.00;;;19.90;99.90;;;;;;4977605;28;20226;-86
2021/09/28 09:41:47;;;;;;;1.77;0.93;;;20.30;99.90;;;;;;4976779;28;20310;-86
2021/09/28 09:44:15;;;;;;;6.67;1.73;;;20.20;99.90;;;;;;4954418;28;20302;-88
2021/09/28 09:46:49;;;;;;;4.87;1.50;;;21.00;99.90;;;;;;4977144;28;20776;-88
2021/09/28 09:49:26;;;;;;;2.20;1.63;;;21.60;99.90;;;;;;4947663;28;20196;-88
2021/09/28 09:51:54;;;;;;;5.03;1.40;;;22.00;99.90;;;;;;4978827;28;20196;-87
2021/09/28 09:54:41;;;;;;;1.43;0.83;;;22.50;99.90;;;;;;4975594;28;20211;-88
2021/09/28 09:57:13;;;;;;;8.23;1.57;;;22.90;99.90;;;;;;4994267;28;20231;-88
2021/09/28 09:59:41;;;;;;;2.60;0.80;;;22.30;99.90;;;;;;4978191;28;20255;-88
2021/09/28 10:02:08;;;;;;;3.93;1.10;;;22.70;99.90;;;;;;4976171;28;20270;-89
2021/09/28 10:04:35;;;;;;;8.13;1.53;;;23.10;99.90;;;;;;4943720;28;20227;-90
2021/09/28 10:07:01;;;;;;;8.83;1.43;;;23.40;99.90;;;;;;4976168;28;20670;-88
2021/09/28 10:09:38;;;;;;;6.23;1.10;;;23.30;99.90;;;;;;4984785;28;20253;-90
2021/09/28 10:12:09;;;;;;;5.80;1.23;;;22.60;99.90;;;;;;4959849;28;20235;-90
2021/09/28 10:14:42;;;;;;;2.73;1.43;;;23.50;99.90;;;;;;4994661;28;20280;-89
2021/09/28 10:17:20;;;;;;;2.30;0.93;;;24.40;99.90;;;;;;4978209;28;20720;-89
2021/09/28 10:19:51;;;;;;;3.87;0.70;;;22.50;99.90;;;;;;4977998;28;20231;-88
2021/09/28 10:22:39;;;;;;;4.03;1.20;;;21.10;99.90;;;;;;4978253;28;20215;-87
2021/09/28 10:25:23;;;;;;;7.07;1.03;;;20.20;99.90;;;;;;4978167;28;20198;-89
2021/09/28 10:27:53;;;;;;;9.87;2.10;;;20.60;99.90;;;;;;4977953;28;20227;-88
2021/09/28 10:30:34;;;;;;;3.67;0.97;;;21.50;99.90;;;;;;4957092;28;20239;-88
2021/09/28 10:33:22;;;;;;;5.97;1.33;;;21.90;99.90;;;;;;4975516;28;20303;-90
2021/09/28 10:35:58;;;;;;;7.90;1.87;;;21.10;99.90;;;;;;4990725;28;20947;-88
2021/09/28 10:38:54;;;;;;;3.93;1.20;;;20.10;99.90;;;;;;4990080;28;20227;-89
2021/09/28 10:41:29;;;;;;;3.37;1.40;;;19.50;99.90;;;;;;4975365;28;20224;-87
2021/09/28 10:44:14;;;;;;;2.83;1.27;;;19.30;99.90;;;;;;4974635;28;20224;-87
2021/09/28 10:46:40;;;;;;;6.03;1.70;;;20.30;99.90;;;;;;4975467;28;20294;-89
2021/09/28 10:49:28;;;;;;;1.63;1.13;;;21.80;99.90;;;;;;4958414;28;20628;-87
2021/09/28 10:52:21;;;;;;;4.93;1.23;;;23.40;99.90;;;;;;4974591;28;20196;-90
2021/09/28 10:55:06;;;;;;;6.63;0.77;;;24.40;99.90;;;;;;4972697;28;20212;-88
2021/09/28 10:57:54;;;;;;;3.37;1.77;;;23.70;99.90;;;;;;4972476;28;20327;-89
2021/09/28 11:00:28;;;;;;;3.13;0.83;;;23.80;99.90;;;;;;4974241;28;20231;-87
2021/09/28 11:02:54;;;;;;;4.67;1.67;;;23.90;99.90;;;;;;4972912;28;20339;-85
2021/09/28 11:05:32;;;;;;;6.83;1.30;;;23.80;99.90;;;;;;4971322;28;20240;-87
2021/09/28 11:08:00;;;;;;;1.67;0.90;;;23.30;99.90;;;;;;4973064;28;20697;-89
2021/09/28 11:10:26;;;;;;;4.68;1.13;;;22.90;99.90;;;;;;4974424;28;20278;-87
2021/09/28 11:12:53;;;;;;;13.80;1.60;;;22.40;99.90;;;;;;4975002;28;20208;-89
2021/09/28 11:15:20;;;;;;;4.70;1.40;;;22.80;99.90;;;;;;4958763;28;20219;-88
2021/09/28 11:17:46;;;;;;;2.60;1.00;;;22.80;99.90;;;;;;4953302;28;20298;-87
2021/09/28 11:20:21;;;;;;;3.60;1.43;;;22.30;99.90;;;;;;4962526;28;20247;-86
2021/09/28 11:22:58;;;;;;;3.73;1.00;;;21.90;99.90;;;;;;4958089;28;20227;-86
2021/09/28 11:25:26;;;;;;;4.07;0.90;;;22.00;99.90;;;;;;4975214;28;20218;-86
2021/09/28 11:28:07;;;;;;;5.57;1.60;;;21.70;99.90;;;;;;4958728;28;20746;-86
2021/09/28 11:30:34;;;;;;;2.30;1.37;;;21.80;99.90;;;;;;4946740;28;20331;-85
2021/09/28 11:33:04;;;;;;;5.80;1.05;;;22.20;99.90;;;;;;4958747;28;20228;-87
2021/09/28 11:35:31;;;;;;;2.67;1.20;;;22.70;99.90;;;;;;4974470;28;20220;-87
2021/09/28 11:38:02;;;;;;;4.50;1.15;;;22.60;99.90;;;;;;4973298;28;20240;-87
2021/09/28 11:40:41;;;;;;;2.33;0.93;;;22.50;99.90;;;;;;4972455;28;20576;-87
2021/09/28 11:43:18;;;;;;;6.57;1.85;;;22.60;99.90;;;;;;4959540;28;20209;-86
2021/09/28 11:45:43;;;;;;;2.80;1.13;;;22.30;99.90;;;;;;4978510;28;20188;-87
2021/09/28 11:48:09;;;;;;;4.57;1.13;;;22.40;99.90;;;;;;4958847;28;20228;-87
2021/09/28 11:50:35;;;;;;;3.17;1.23;;;22.60;99.90;;;;;;4944877;28;20282;-87
2021/09/28 11:53:08;;;;;;;1.05;0.60;;;22.50;99.90;;;;;;4952197;28;20221;-87
2021/09/28 11:55:34;;;;;;;3.90;0.73;;;21.90;99.90;;;;;;4959669;28;20220;-87
2021/09/28 11:58:00;;;;;;;3.35;1.10;;;21.90;99.90;;;;;;4980865;28;20275;-86
2021/09/28 12:00:26;;;;;;;2.33;1.20;;;21.80;99.90;;;;;;4958699;28;20784;-87
2021/09/28 12:03:08;;;;;;;5.73;1.20;;;21.80;99.90;;;;;;4978344;28;20576;-86
2021/09/28 12:05:46;;;;;;;4.50;1.10;;;21.30;99.90;;;;;;4976450;28;20291;-85
2021/09/28 12:08:22;;;;;;;3.13;1.20;;;20.90;99.90;;;;;;4968310;28;20223;-86
2021/09/28 12:10:49;;;;;;;3.70;1.13;;;20.60;99.90;;;;;;4969897;28;20228;-87
2021/09/28 12:13:17;;;;;;;2.50;1.30;;;20.60;99.90;;;;;;4958635;28;20189;-87
2021/09/28 12:16:07;;;;;;;4.07;1.20;;;20.60;99.90;;;;;;4973044;28;20199;-87
2021/09/28 12:18:33;;;;;;;1.70;0.73;;;20.40;99.90;;;;;;4972250;28;20224;-87
2021/09/28 12:21:19;;;;;;;2.33;0.93;;;20.10;99.90;;;;;;4954926;28;20254;-86
2021/09/28 12:23:46;;;;;;;2.33;1.67;;;19.90;99.90;;;;;;4974532;28;20222;-87
2021/09/28 12:26:24;;;;;;;5.27;1.10;;;19.70;99.90;;;;;;4973950;28;20247;-87
2021/09/28 12:28:50;;;;;;;5.43;1.70;;;19.70;99.90;;;;;;4973374;28;20326;-85
2021/09/28 12:31:16;;;;;;;2.33;0.77;;;19.70;99.90;;;;;;4977437;28;21226;-86
2021/09/28 12:33:42;;;;;;;1.27;0.70;;;19.50;99.90;;;;;;4947378;28;20195;-86
2021/09/28 12:36:08;;;;;;;2.67;0.80;;;19.40;99.90;;;;;;4978327;28;20719;-85
2021/09/28 12:38:34;;;;;;;4.57;1.20;;;19.20;99.90;;;;;;4977227;28;20302;-88
2021/09/28 12:41:08;;;;;;;1.63;0.67;;;19.30;99.90;;;;;;4962037;28;20258;-87
2021/09/28 12:43:35;;;;;;;6.80;1.50;;;19.20;99.90;;;;;;4977846;28;20216;-87
2021/09/28 12:46:04;;;;;;;8.50;0.97;;;19.40;99.90;;;;;;4946424;28;20531;-87
2021/09/28 12:48:38;;;;;;;3.57;1.50;;;19.30;99.90;;;;;;4981809;28;20737;-87
2021/09/28 12:51:09;;;;;;;1.90;1.00;;;19.60;99.90;;;;;;4978407;28;20233;-86
2021/09/28 12:53:36;;;;;;;7.80;1.30;;;19.50;99.90;;;;;;4996264;28;20227;-87